Time;durP1;ratioP1;P1;durP2;ratioP2;P2;SDS_P1;SDS_P2;PMS_P1;PMS_P2;Temp;Humidity;BMP_temperature;BMP_pressure;BME280_temperature;BME280_humidity;BME280_pressure;Samples;Min_cycle;Max_cycle;Signal;HPM_P1;HPM_P2
2021/12/23 00:00:57;;;;;;;56.50;27.40;;;;;;;-1.24;57.04;101089.09;4301212;33;34018;-87
2021/12/23 00:03:25;;;;;;;69.10;24.27;;;;;;;-1.49;58.09;101098.84;4298483;33;34685;-87
2021/12/23 00:05:54;;;;;;;57.55;24.33;;;;;;;-1.33;57.88;101095.81;4311248;33;33767;-87
2021/12/23 00:08:21;;;;;;;54.78;24.20;;;;;;;-1.28;57.37;101083.00;4299547;33;33411;-87
2021/12/23 00:10:51;;;;;;;49.50;22.55;;;;;;;-1.34;57.29;101078.50;4299774;33;33925;-87
2021/12/23 00:13:19;;;;;;;50.38;23.85;;;;;;;-1.36;57.20;101084.50;4300376;33;33367;-87
2021/12/23 00:16:03;;;;;;;57.00;23.67;;;;;;;-1.43;57.11;101083.44;4311510;33;33249;-88
2021/12/23 00:23:56;;;;;;;34.47;17.30;;;;;;;-1.69;58.63;101071.56;4310977;33;33349;-87
2021/12/23 00:26:24;;;;;;;45.80;21.85;;;;;;;-2.00;59.63;101062.09;4312075;33;33128;-87
2021/12/23 00:28:52;;;;;;;49.67;20.62;;;;;;;-1.73;58.55;101061.94;4297438;33;34591;-88
2021/12/23 00:31:20;;;;;;;54.67;21.67;;;;;;;-1.66;57.87;101066.44;4311214;33;32790;-87
2021/12/23 00:33:48;;;;;;;45.35;19.67;;;;;;;-1.56;57.44;101055.50;4300080;33;33320;-87
2021/12/23 00:36:16;;;;;;;40.55;18.50;;;;;;;-1.79;58.11;101067.84;4310928;33;33015;-87
2021/12/23 00:38:50;;;;;;;;;;;;;;;-1.78;58.28;101069.59;4298751;33;33787;-87
2021/12/23 00:41:19;;;;;;;;;;;;;;;-1.94;58.82;101068.31;4322232;33;32431;-87
2021/12/23 00:43:47;;;;;;;;;;;;;;;-1.83;58.19;101059.12;4325655;33;33198;-87
2021/12/23 00:46:14;;;;;;;;;;;;;;;-1.78;57.46;101058.38;4322856;33;34248;-88
2021/12/23 00:48:42;;;;;;;;;;;;;;;-1.61;56.95;101046.75;4310070;33;34130;-87
2021/12/23 00:51:11;;;;;;;;;;;;;;;-1.91;57.20;101052.84;4299269;33;33029;-88
2021/12/23 00:53:40;;;;;;;;;;;;;;;-1.99;57.92;101059.56;4321142;33;33645;-87
2021/12/23 00:56:24;;;;;;;;;;;;;;;-1.88;57.13;101052.06;4306865;33;33680;-88
2021/12/23 00:58:51;;;;;;;;;;;;;;;-1.78;56.85;101059.25;4310022;33;32966;-87
2021/12/23 01:01:19;;;;;;;;;;;;;;;-1.81;56.96;101054.84;4314379;33;33381;-87
2021/12/23 01:03:47;;;;;;;;;;;;;;;-1.81;56.82;101052.25;4321031;33;32810;-87
2021/12/23 01:06:14;;;;;;;;;;;;;;;-1.86;56.71;101056.44;4322609;33;35179;-87
2021/12/23 01:08:42;;;;;;;;;;;;;;;-1.81;56.50;101044.50;4315882;33;34723;-92
2021/12/23 01:11:33;;;;;;;;;;;;;;;-2.01;56.98;101039.63;4320323;33;32055;-91
2021/12/23 01:17:30;;;;;;;;;;;;;;;-2.15;57.06;101036.66;4336148;33;33056;-90
2021/12/23 01:20:10;;;;;;;;;;;;;;;-2.04;56.76;101039.53;4347052;33;34900;-90
2021/12/23 01:23:03;;;;;;;;;;;;;;;-2.58;58.90;101040.63;4341737;33;33558;-91
2021/12/23 01:25:42;;;;;;;;;;;;;;;-2.20;57.72;101028.78;4336099;33;32569;-91
2021/12/23 01:28:33;;;;;;;;;;;;;;;-2.20;57.09;101027.91;4309154;33;32929;-92
2021/12/23 01:31:12;;;;;;;;;;;;;;;-2.24;56.90;101028.66;4325209;33;32641;-91
2021/12/23 01:34:03;;;;;;;;;;;;;;;-2.24;56.79;101031.22;4336123;33;31726;-91
2021/12/23 01:36:42;;;;;;;;;;;;;;;-2.30;57.19;101031.94;4327803;33;33026;-92
2021/12/23 01:39:36;;;;;;;;;;;;;;;-2.51;58.47;101028.75;4346724;32;34687;-88
2021/12/23 01:42:04;;;;;;;;;;;;;;;-2.36;57.65;101034.38;4333067;33;34585;-88
2021/12/23 01:44:31;;;;;;;;;;;;;;;-2.52;57.86;101022.69;4345306;32;32119;-89
2021/12/23 01:46:58;;;;;;;;;;;;;;;-2.40;57.91;101025.62;4333206;33;33376;-89
2021/12/23 01:49:26;;;;;;;;;;;;;;;-2.46;57.61;101022.88;4333694;33;33065;-88
2021/12/23 01:51:54;;;;;;;;;;;;;;;-2.50;57.97;101015.00;4345327;33;32940;-89
2021/12/23 01:54:21;;;;;;;;;;;;;;;-2.39;57.44;101011.88;4344389;33;33093;-89
2021/12/23 01:56:49;;;;;;;;;;;;;;;-2.29;57.03;101012.12;4338012;33;33193;-88
2021/12/23 01:59:18;;;;;;;;;;;;;;;-2.50;57.36;101008.09;4327373;33;33181;-90
2021/12/23 02:01:45;;;;;;;;;;;;;;;-2.36;57.06;100998.16;4330576;33;33509;-89
2021/12/23 02:04:13;;;;;;;;;;;;;;;-2.40;57.03;101004.06;4332866;33;33558;-89
2021/12/23 02:06:41;;;;;;;;;;;;;;;-2.22;56.42;101001.12;4321425;33;34029;-89
2021/12/23 02:09:08;;;;;;;;;;;;;;;-2.35;56.70;100995.59;4332417;33;33904;-89
2021/12/23 02:11:37;;;;;;;;;;;;;;;-2.45;56.89;100991.00;4344264;32;32905;-89
2021/12/23 02:14:05;;;;;;;;;;;;;;;-2.72;57.87;100995.38;4339334;33;33434;-89
2021/12/23 02:16:32;;;;;;;;;;;;;;;-2.47;57.39;101003.03;4339570;33;32903;-85
2021/12/23 02:19:02;;;;;;;;;;;;;;;-2.25;56.67;100995.84;4332329;33;33469;-85
2021/12/23 02:21:30;;;;;;;;;;;;;;;-2.60;57.23;100991.47;4334901;33;33639;-85
2021/12/23 02:23:57;;;;;;;;;;;;;;;-2.41;56.73;100981.63;4339226;33;33932;-86
2021/12/23 02:26:25;;;;;;;;;;;;;;;-2.40;56.52;100981.66;4339302;32;32857;-86
2021/12/23 02:28:53;;;;;;;;;;;;;;;-2.61;57.15;100976.78;4330981;33;34411;-86
2021/12/23 02:31:20;;;;;;;;;;;;;;;-2.46;56.80;100984.09;4342627;33;34209;-85
2021/12/23 02:33:47;;;;;;;;;;;;;;;-2.64;57.28;100978.41;4332435;33;32275;-86
2021/12/23 02:36:15;;;;;;;;;;;;;;;-2.92;57.74;100974.12;4343836;32;33323;-86
2021/12/23 02:38:42;;;;;;;;;;;;;;;-2.69;57.99;100974.81;4328303;33;34739;-86
2021/12/23 02:41:10;;;;;;;;;;;;;;;-2.61;57.57;100962.97;4327501;33;34435;-86
2021/12/23 02:43:53;;;;;;;;;;;;;;;-2.50;57.26;100961.56;4340990;33;32115;-86
2021/12/23 02:46:21;;;;;;;;;;;;;;;-2.54;57.07;100959.72;4337522;33;33289;-86
2021/12/23 02:48:49;;;;;;;;;;;;;;;-2.74;57.34;100966.91;4327500;33;34511;-87
2021/12/23 02:51:16;;;;;;;;;;;;;;;-2.72;57.62;100959.19;4339866;33;34138;-87
2021/12/23 02:53:44;;;;;;;;;;;;;;;-2.92;57.83;100954.34;4339244;32;33499;-86
2021/12/23 02:56:14;;;;;;;;;;;;;;;-2.71;57.52;100956.66;4339368;33;34071;-87
2021/12/23 02:58:43;;;;;;;;;;;;;;;-2.85;57.83;100947.62;4338974;33;33846;-86
2021/12/23 03:01:10;;;;;;;;;;;;;;;-2.66;57.55;100949.94;4338635;33;34126;-86
2021/12/23 03:03:38;;;;;;;;;;;;;;;-2.64;57.53;100947.38;4339401;33;31998;-87
2021/12/23 03:06:06;;;;;;;;;;;;;;;-2.83;57.92;100944.25;4327533;33;34007;-86
2021/12/23 03:08:35;;;;;;;;;;;;;;;-2.52;57.31;100947.69;4333098;33;34361;-87
2021/12/23 03:11:03;;;;;;;;;;;;;;;-2.68;57.73;100942.94;4338827;33;33082;-86
2021/12/23 03:13:31;;;;;;;;;;;;;;;-2.46;57.37;100942.72;4351202;32;33199;-86
2021/12/23 03:15:58;;;;;;;;;;;;;;;-2.44;57.19;100932.41;4329343;33;33324;-87
2021/12/23 03:18:26;;;;;;;;;;;;;;;-2.66;57.54;100933.50;4351433;32;34285;-87
2021/12/23 03:20:54;;;;;;;;;;;;;;;-2.53;57.11;100934.72;4340488;33;34076;-84
2021/12/23 03:23:21;;;;;;;;;;;;;;;-2.57;57.53;100938.94;4341379;33;32958;-84
2021/12/23 03:25:49;;;;;;;;;;;;;;;-2.81;58.20;100936.53;4341575;33;34128;-84
2021/12/23 03:28:16;;;;;;;;;;;;;;;-2.94;59.44;100932.75;4340152;33;33065;-84
2021/12/23 03:30:44;;;;;;;;;;;;;;;-2.85;58.58;100934.69;4338129;33;33666;-85
2021/12/23 03:33:12;;;;;;;;;;;;;;;-2.77;58.11;100929.75;4340359;33;32769;-85
2021/12/23 03:35:39;;;;;;;;;;;;;;;-2.60;57.52;100926.81;4338877;33;34165;-87
2021/12/23 03:38:07;;;;;;;;;;;;;;;-2.90;58.33;100929.41;4335931;32;32716;-87
2021/12/23 03:40:35;;;;;;;;;;;;;;;-2.84;58.64;100926.13;4340926;32;35100;-88
2021/12/23 03:43:03;;;;;;;;;;;;;;;-2.57;57.52;100923.41;4341736;32;33688;-87
2021/12/23 03:45:30;;;;;;;;;;;;;;;-2.59;57.34;100918.22;4344416;32;34225;-87
2021/12/23 03:47:59;;;;;;;;;;;;;;;-2.80;58.45;100924.50;4332937;32;33475;-88
2021/12/23 03:50:26;;;;;;;;;;;;;;;-2.67;58.19;100921.41;4339051;32;34302;-90
2021/12/23 03:52:54;;;;;;;;;;;;;;;-2.67;58.38;100917.12;4329701;32;32483;-90
2021/12/23 03:55:42;;;;;;;;;;;;;;;-2.54;57.97;100914.87;4333954;32;33923;-90
2021/12/23 03:58:29;;;;;;;;;;;;;;;-2.60;58.13;100919.06;4341399;32;34053;-90
2021/12/23 04:01:17;;;;;;;;;;;;;;;-2.67;58.36;100916.25;4333839;32;32552;-90
2021/12/23 04:04:06;;;;;;;;;;;;;;;-2.65;58.02;100917.19;4342675;32;32142;-89
2021/12/23 04:06:33;;;;;;;;;;;;;;;-2.62;57.67;100909.50;4331577;32;33773;-89
2021/12/23 04:09:21;;;;;;;;;;;;;;;-2.52;57.38;100910.63;4341906;32;33099;-89
2021/12/23 04:12:08;;;;;;;;;;;;;;;-2.60;57.60;100905.25;4331798;32;32806;-90
2021/12/23 04:14:53;;;;;;;;;;;;;;;-2.61;58.02;100906.09;4310142;33;32140;-89
2021/12/23 04:17:21;;;;;;;;;;;;;;;-2.61;57.64;100900.94;4316622;33;32423;-89
2021/12/23 04:20:20;;;;;;;;;;;;;;;-2.67;57.76;100901.63;4304900;33;32798;-89
2021/12/23 04:22:53;;;;;;;;;;;;;;;-2.65;57.11;100901.69;4317359;33;34242;-89
2021/12/23 04:25:22;;;;;;;;;;;;;;;-2.69;57.31;100902.41;4313916;33;31782;-89
2021/12/23 04:27:51;;;;;;;;;;;;;;;-2.72;57.77;100907.50;4315656;33;33547;-89
2021/12/23 04:30:18;;;;;;;;;;;;;;;-2.90;58.22;100905.25;4311862;33;33050;-88
2021/12/23 04:32:46;;;;;;;;;;;;;;;-2.76;57.79;100891.03;4313802;33;33547;-88
2021/12/23 04:35:14;;;;;;;;;;;;;;;-2.77;57.80;100891.84;4313670;33;32430;-88
2021/12/23 04:37:42;;;;;;;;;;;;;;;-2.67;57.46;100875.75;4300665;33;33763;-88
2021/12/23 04:40:10;;;;;;;;;;;;;;;-3.06;58.59;100885.88;4313956;33;33622;-89
2021/12/23 04:42:39;;;;;;;;;;;;;;;-2.72;58.23;100882.50;4308436;33;33493;-87
2021/12/23 04:45:07;;;;;;;;;;;;;;;-2.60;57.94;100882.88;4302320;33;32206;-87
2021/12/23 04:47:35;;;;;;;;;;;;;;;-2.96;58.50;100879.25;4308563;33;33106;-89
2021/12/23 04:50:15;;;;;;;;;;;;;;;-2.79;58.04;100884.91;4351433;32;32945;-90
2021/12/23 04:53:23;;;;;;;;;;;;;;;-3.35;59.05;100875.56;4319582;33;33727;-87
2021/12/23 04:55:50;;;;;;;;;;;;;;;-2.90;58.71;100882.00;4305673;33;32388;-86
2021/12/23 04:58:19;;;;;;;;;;;;;;;-3.40;61.00;100878.84;4299530;33;33130;-86
2021/12/23 05:00:48;;;;;;;;;;;;;;;-3.09;60.05;100883.19;4305513;33;33469;-87
2021/12/23 05:03:16;;;;;;;;;;;;;;;-2.93;59.56;100882.81;4304186;33;33069;-87
2021/12/23 05:05:45;;;;;;;;;;;;;;;-2.94;59.66;100885.38;4293727;33;32501;-87
2021/12/23 05:08:12;;;;;;;;;;;;;;;-2.84;59.02;100883.06;4322147;33;32783;-87
2021/12/23 05:10:40;;;;;;;;;;;;;;;-2.90;59.36;100880.28;4310140;33;33422;-87
2021/12/23 05:13:09;;;;;;;;;;;;;;;-2.84;59.05;100880.50;4306048;33;33877;-86
2021/12/23 05:15:36;;;;;;;;;;;;;;;-2.98;59.18;100876.63;4310097;33;32075;-86
2021/12/23 05:18:04;;;;;;;;;;;;;;;-3.13;58.89;100873.63;4305016;33;32499;-88
2021/12/23 05:20:52;;;;;;;;;;;;;;;-3.14;59.47;100874.44;4317195;33;32820;-87
2021/12/23 05:23:20;;;;;;;;;;;;;;;-2.83;58.73;100866.72;4314755;33;34510;-85
2021/12/23 05:25:48;;;;;;;;;;;;;;;-2.88;59.04;100862.25;4314327;33;32237;-85
2021/12/23 05:28:16;;;;;;;;;;;;;;;-2.72;58.79;100855.78;4325071;33;33438;-86
2021/12/23 05:30:43;;;;;;;;;;;;;;;-2.88;58.92;100860.56;4323350;33;32984;-89
2021/12/23 05:33:10;;;;;;;;;;;;;;;-2.77;59.10;100859.97;4325779;33;34504;-87
2021/12/23 05:35:38;;;;;;;;;;;;;;;-2.78;59.27;100860.81;4327799;33;33789;-87
2021/12/23 05:38:06;;;;;;;;;;;;;;;-2.69;59.13;100867.09;4315295;33;33200;-87
2021/12/23 05:40:35;;;;;;;;;;;;;;;-2.66;nan;100871.47;4316575;33;33110;-87
2021/12/23 05:43:03;;;;;;;;;;;;;;;-2.84;59.77;100877.91;4329192;33;32654;-87
2021/12/23 05:45:30;;;;;;;;;;;;;;;-2.55;59.32;100877.81;4327156;33;34597;-87
2021/12/23 05:47:57;;;;;;;;;;;;;;;-2.67;60.18;100891.28;4315823;33;33783;-85
2021/12/23 05:50:26;;;;;;;;;;;;;;;-2.77;61.12;100878.06;4326755;33;33861;-85
2021/12/23 05:52:53;;;;;;;;;;;;;;;-2.39;59.99;100869.59;4325863;33;34096;-85
2021/12/23 05:55:21;;;;;;;;;;;;;;;-2.27;59.59;100875.94;4326996;33;32173;-85
2021/12/23 05:57:49;;;;;;;;;;;;;;;-2.30;59.71;100871.56;4316419;33;32997;-86
2021/12/23 06:00:18;;;;;;;;;;;;;;;-2.27;59.59;100875.94;4328290;33;34154;-87
2021/12/23 06:02:46;;;;;;;;;;;;;;;-2.20;59.60;100862.31;4327665;33;34544;-87
2021/12/23 06:05:14;;;;;;;;;;;;;;;-2.17;59.49;100854.63;4315684;33;33495;-86
2021/12/23 06:07:41;;;;;;;;;;;;;;;-2.21;59.64;100851.09;4328622;33;34907;-86
2021/12/23 06:10:09;;;;;;;;;;;;;;;-2.39;61.01;100854.09;4314775;33;33953;-86
2021/12/23 06:12:36;;;;;;;;;;;;;;;-2.40;61.28;100857.50;4327460;33;33789;-87
2021/12/23 06:15:04;;;;;;;;;;;;;;;-2.17;60.99;100846.87;4316169;33;32272;-87
2021/12/23 06:17:32;;;;;;;;;;;;;;;-2.01;60.60;100848.97;4328767;33;33036;-86
2021/12/23 06:19:59;;;;;;;;;;;;;;;-2.02;61.12;100846.38;4325334;33;33640;-86
2021/12/23 06:22:27;;;;;;;;;;;;;;;-1.88;60.89;100843.25;4322422;33;33736;-87
2021/12/23 06:24:54;;;;;;;;;;;;;;;-1.98;61.26;100845.59;4322701;33;33264;-86
2021/12/23 06:27:22;;;;;;;;;;;;;;;-1.79;61.15;100846.91;4328076;33;34289;-86
2021/12/23 06:29:49;;;;;;;;;;;;;;;-1.60;60.78;100842.19;4309629;33;33317;-86
2021/12/23 06:32:17;;;;;;;;;;;;;;;-1.64;61.14;100840.34;4326284;33;33933;-87
2021/12/23 06:34:44;;;;;;;;;;;;;;;-1.59;61.47;100835.28;4321260;33;34156;-88
2021/12/23 06:37:11;;;;;;;;;;;;;;;-1.44;60.94;100827.81;4309855;33;32838;-88
2021/12/23 06:39:39;;;;;;;;;;;;;;;-1.46;61.23;100839.88;4317792;33;34728;-88
2021/12/23 06:42:07;;;;;;;;;;;;;;;-1.36;60.82;100834.06;4309690;33;33806;-88
2021/12/23 06:44:34;;;;;;;;;;;;;;;-1.20;60.66;100840.41;4321545;33;32457;-89
2021/12/23 06:47:02;;;;;;;;;;;;;;;-1.05;60.50;100845.03;4308814;33;32972;-88
2021/12/23 06:49:31;;;;;;;;;;;;;;;-1.03;60.34;100843.37;4309950;33;33529;-85
2021/12/23 06:52:00;;;;;;;;;;;;;;;-0.91;59.37;100838.41;4327217;33;32890;-84
2021/12/23 06:54:27;;;;;;;;;;;;;;;-0.82;58.80;100838.59;4315112;33;32250;-85
2021/12/23 06:56:55;;;;;;;;;;;;;;;-0.98;59.40;100833.09;4323587;33;33988;-84
2021/12/23 06:59:22;;;;;;;;;;;;;;;-0.90;59.59;100832.41;4322085;33;33995;-85
2021/12/23 07:01:49;;;;;;;;;;;;;;;-0.89;59.11;100839.31;4328232;33;34059;-88
2021/12/23 07:04:21;;;;;;;;;;;;;;;-0.92;59.19;100841.84;4324336;33;33571;-88
2021/12/23 07:06:59;;;;;;;;;;;;;;;-0.53;57.85;100839.12;4323148;33;33896;-88
2021/12/23 07:09:27;;;;;;;;;;;;;;;-0.68;58.16;100830.19;4322737;33;35062;-86
2021/12/23 07:11:54;;;;;;;;;;;;;;;-0.59;58.10;100832.97;4312059;33;33634;-87
2021/12/23 07:14:21;;;;;;;;;;;;;;;-0.82;58.19;100836.00;4324279;33;32370;-87
2021/12/23 07:16:49;;;;;;;;;;;;;;;-1.00;58.51;100835.62;4329429;33;34201;-87
2021/12/23 07:19:16;;;;;;;;;;;;;;;-0.75;58.33;100839.59;4323802;33;33561;-86
2021/12/23 07:21:44;;;;;;;;;;;;;;;-0.79;58.28;100835.19;4312848;33;33373;-87
2021/12/23 07:24:11;;;;;;;;;;;;;;;-0.66;58.13;100828.53;4322409;33;33036;-87
2021/12/23 07:26:39;;;;;;;;;;;;;;;-0.43;57.76;100818.53;4324285;33;34329;-88
2021/12/23 07:29:06;;;;;;;;;;;;;;;-0.60;57.65;100820.84;4324313;33;34220;-88
2021/12/23 07:31:34;;;;;;;;;;;;;;;-0.43;57.50;100824.56;4311838;33;33120;-90
2021/12/23 07:34:05;;;;;;;;;;;;;;;-0.23;56.91;100817.16;4323009;33;33374;-89
2021/12/23 07:36:34;;;;;;;;;;;;;;;-0.19;57.02;100825.84;4311840;33;34310;-89
2021/12/23 07:39:06;;;;;;;;;;;;;;;-0.12;56.58;100825.97;4308596;33;32885;-86
2021/12/23 07:41:54;;;;;;;;;;;;;;;-0.60;57.72;100832.09;4312017;33;33362;-89
2021/12/23 07:44:35;;;;;;;;;;;;;;;-0.61;58.12;100829.47;4321379;33;32563;-89
2021/12/23 07:47:03;;;;;;;;;;;;;;;-0.49;58.19;100819.28;4328550;33;32584;-89
2021/12/23 07:49:30;;;;;;;;;;;;;;;-0.71;58.39;100818.06;4321640;33;34718;-91
2021/12/23 07:52:09;;;;;;;;;;;;;;;-0.60;58.32;100824.31;4328947;33;33619;-90
2021/12/23 07:54:37;;;;;;;;;;;;;;;-0.45;57.93;100804.66;4339270;33;32352;-91
2021/12/23 07:57:46;;;;;;;;;;;;;;;-0.40;58.03;100806.47;4364661;32;33162;-95
2021/12/23 08:00:34;;;;;;;;;;;;;;;-0.24;57.57;100798.94;4352521;32;33255;-90
2021/12/23 08:03:12;;;;;;;;;;;;;;;-1.04;59.21;100802.75;4353061;32;33367;-87
2021/12/23 08:05:41;;;;;;;;;;;;;;;-0.65;58.50;100806.91;4364591;32;33043;-87
2021/12/23 08:08:09;;;;;;;;;;;;;;;-0.38;58.14;100786.63;4355675;32;33706;-88
2021/12/23 08:10:36;;;;;;;;;;;;;;;0.10;56.75;100784.78;4350741;32;33458;-87
2021/12/23 08:13:04;;;;;;;;;;;;;;;-0.28;56.58;100783.34;4362298;32;33734;-88
2021/12/23 08:15:31;;;;;;;;;;;;;;;-0.14;55.97;100788.75;4350955;32;31965;-90
2021/12/23 08:18:04;;;;;;;;;;;;;;;-0.18;56.56;100779.16;4364200;32;34978;-87
2021/12/23 08:20:32;;;;;;;;;;;;;;;-0.01;54.81;100782.87;4350942;32;34398;-88
2021/12/23 08:22:59;;;;;;;;;;;;;;;-0.43;55.05;100777.88;4350691;32;33390;-87
2021/12/23 08:25:27;;;;;;;;;;;;;;;-0.42;55.26;100784.84;4350837;32;32101;-87
2021/12/23 08:27:54;;;;;;;;;;;;;;;0.01;54.71;100782.03;4350925;32;33854;-88
2021/12/23 08:30:22;;;;;;;;;;;;;;;-0.17;54.67;100772.25;4350745;32;32696;-87
2021/12/23 08:32:50;;;;;;;;;;;;;;;-0.19;55.75;100776.53;4375737;32;34084;-88
2021/12/23 08:35:18;;;;;;;;;;;;;;;-0.07;54.04;100766.34;4351148;32;32686;-87
2021/12/23 08:37:47;;;;;;;;;;;;;;;-0.04;55.05;100771.59;4362554;32;32696;-88
2021/12/23 08:40:16;;;;;;;;;;;;;;;-0.07;54.31;100775.00;4351400;32;33911;-87
2021/12/23 08:42:44;;;;;;;;;;;;;;;-0.01;54.30;100772.47;4351097;32;32937;-88
2021/12/23 08:45:11;;;;;;;;;;;;;;;0.16;54.70;100780.53;4352147;32;32793;-88
2021/12/23 08:47:39;;;;;;;;;;;;;;;0.27;54.89;100777.19;4351489;32;32644;-88
2021/12/23 08:50:07;;;;;;;;;;;;;;;0.03;54.21;100778.59;4339367;32;33417;-88
2021/12/23 08:52:35;;;;;;;;;;;;;;;0.58;51.73;100770.69;4351756;32;32638;-88
2021/12/23 08:55:05;;;;;;;;;;;;;;;0.11;53.51;100777.00;4361455;32;32180;-88
2021/12/23 08:57:33;;;;;;;;;;;;;;;0.31;52.79;100766.00;4354758;32;33837;-87
2021/12/23 09:00:01;;;;;;;;;;;;;;;0.19;53.06;100765.00;4351594;32;33675;-88
2021/12/23 09:02:28;;;;;;;;;;;;;;;0.29;52.40;100763.41;4350506;32;32827;-87
2021/12/23 09:04:56;;;;;;;;;;;;;;;0.25;52.54;100769.41;4363867;32;33379;-87
2021/12/23 09:07:23;;;;;;;;;;;;;;;0.41;52.28;100767.88;4350355;32;32978;-88
2021/12/23 09:09:51;;;;;;;;;;;;;;;0.49;52.03;100759.31;4350739;32;33041;-87
2021/12/23 09:12:19;;;;;;;;;;;;;;;0.37;53.11;100748.75;4363792;32;32617;-88
2021/12/23 09:14:46;;;;;;;;;;;;;;;0.32;52.53;100744.38;4349628;32;32498;-90
2021/12/23 09:17:14;;;;;;;18.70;7.00;;;;;;;0.39;51.18;100741.87;4351339;32;33073;-90
2021/12/23 09:19:44;;;;;;;14.07;5.90;;;;;;;0.72;51.02;100740.53;4350776;32;32605;-89
2021/12/23 09:22:13;;;;;;;11.75;5.93;;;;;;;1.06;48.41;100733.97;4351385;32;32404;-90
2021/12/23 09:24:46;;;;;;;21.27;6.12;;;;;;;0.66;48.77;100733.53;4339537;32;32162;-91
2021/12/23 09:33:00;;;;;;;13.55;6.18;;;;;;;0.72;50.20;100709.34;4322183;33;33323;-89
2021/12/23 09:35:46;;;;;;;11.85;5.12;;;;;;;0.81;48.97;100718.94;4339197;32;20158;-91
2021/12/23 09:38:14;;;;;;;14.87;5.93;;;;;;;0.62;48.81;100704.87;4337138;32;33117;-90
2021/12/23 09:41:06;;;;;;;12.35;5.47;;;;;;;0.68;48.71;100700.63;4335125;32;33232;-89
2021/12/23 09:43:46;;;;;;;12.00;5.93;;;;;;;0.51;48.87;100709.97;4338648;32;32853;-89
2021/12/23 09:46:36;;;;;;;17.37;5.28;;;;;;;0.81;48.44;100693.84;4314514;33;32290;-90
2021/12/23 09:49:20;;;;;;;9.15;5.15;;;;;;;1.02;47.88;100696.62;4315327;33;33237;-91
2021/12/23 09:52:14;;;;;;;10.82;5.10;;;;;;;1.25;47.28;100694.25;4327856;33;33241;-91
2021/12/23 09:54:55;;;;;;;9.88;5.62;;;;;;;0.95;47.36;100686.16;4339337;33;32758;-92
2021/12/23 09:57:48;;;;;;;16.52;7.28;;;;;;;1.39;46.86;100693.50;4333320;33;32162;-92
2021/12/23 10:00:30;;;;;;;13.10;5.75;;;;;;;1.68;47.84;100697.19;4310882;33;32672;-92
2021/12/23 10:02:59;;;;;;;11.40;5.60;;;;;;;1.97;46.43;100675.66;4299907;33;32569;-89
2021/12/23 10:05:29;;;;;;;13.07;6.07;;;;;;;1.82;45.40;100678.16;4316060;33;33290;-90
2021/12/23 10:08:05;;;;;;;14.13;6.05;;;;;;;1.86;46.10;100669.53;4303125;33;32861;-90
2021/12/23 10:10:51;;;;;;;17.80;6.53;;;;;;;1.83;45.80;100666.88;4291949;33;32771;-90
2021/12/23 10:38:42;;;;;;;9.77;4.90;;;;;;;2.30;44.33;100607.16;4320018;33;34165;-88
2021/12/23 10:41:25;;;;;;;12.50;5.12;;;;;;;2.26;43.81;100598.47;4317585;33;32247;-88
2021/12/23 10:43:57;;;;;;;6.72;3.53;;;;;;;1.84;45.40;100614.81;4318668;33;34109;-88
2021/12/23 10:46:29;;;;;;;13.75;5.47;;;;;;;2.23;43.66;100590.66;4317939;33;33296;-90
2021/12/23 10:49:18;;;;;;;12.87;5.13;;;;;;;2.39;44.32;100582.87;4318680;33;33159;-89
2021/12/23 10:52:04;;;;;;;11.23;4.78;;;;;;;2.59;43.26;100580.28;4311807;33;33177;-89
2021/12/23 11:00:24;;;;;;;13.13;4.57;;;;;;;2.31;43.58;100573.28;4317958;33;33174;-93
2021/12/23 11:03:13;;;;;;;10.27;4.80;;;;;;;2.31;44.34;100569.81;4319026;33;32187;-88
2021/12/23 11:05:55;;;;;;;15.18;5.07;;;;;;;2.48;43.14;100556.81;4318427;33;34395;-92
2021/12/23 11:29:00;;;;;;;8.90;4.25;;;;;;;2.74;43.42;100502.06;4330116;33;32765;-88
2021/12/23 11:37:07;;;;;;;11.18;5.37;;;;;;;2.96;43.38;100487.28;4325504;33;32922;-86
2021/12/23 11:40:08;;;;;;;10.20;5.07;;;;;;;2.80;42.07;100475.97;4318052;33;34473;-86
2021/12/23 11:43:02;;;;;;;8.45;4.62;;;;;;;2.55;43.07;100480.34;4326538;33;33722;-86
2021/12/23 11:45:24;;;;;;;6.45;3.45;;;;;;;2.79;42.79;100466.41;4321377;33;33643;-86
2021/12/23 11:47:52;;;;;;;9.90;4.00;;;;;;;2.62;42.29;100462.97;4318946;33;33445;-86
2021/12/23 11:50:30;;;;;;;7.68;4.55;;;;;;;2.86;41.36;100454.25;4319314;33;33993;-86
2021/12/23 11:52:58;;;;;;;7.35;4.03;;;;;;;2.35;42.84;100456.03;4319532;33;33768;-86
2021/12/23 11:55:26;;;;;;;7.15;3.20;;;;;;;2.39;42.35;100449.94;4319403;33;33479;-87
2021/12/23 11:57:54;;;;;;;12.88;4.50;;;;;;;2.50;42.96;100456.03;4311480;33;33407;-87
2021/12/23 12:00:37;;;;;;;8.48;3.97;;;;;;;2.40;43.06;100443.87;4335727;33;33795;-87
2021/12/23 12:03:06;;;;;;;7.37;3.80;;;;;;;2.65;42.65;100442.97;4314402;33;33933;-87
2021/12/23 12:05:35;;;;;;;6.87;4.05;;;;;;;1.98;43.03;100436.00;4323451;33;32921;-87
2021/12/23 12:08:15;;;;;;;5.68;3.17;;;;;;;2.39;42.97;100431.72;4314892;33;32552;-86
2021/12/23 12:10:45;;;;;;;12.25;5.28;;;;;;;2.23;42.57;100425.59;4318880;33;33435;-86
2021/12/23 12:13:16;;;;;;;12.13;6.70;;;;;;;2.50;42.95;100422.12;4324775;33;33399;-87
2021/12/23 12:15:47;;;;;;;8.77;3.97;;;;;;;2.43;42.30;100423.87;4323522;33;32766;-87
2021/12/23 12:18:19;;;;;;;37.80;11.82;;;;;;;2.90;40.57;100416.87;4312772;33;32147;-87
2021/12/23 12:20:54;;;;;;;40.47;16.75;;;;;;;2.83;41.18;100414.25;4337428;33;34797;-86
2021/12/23 12:23:36;;;;;;;8.25;4.32;;;;;;;2.63;41.50;100407.34;4336327;33;34383;-87
2021/12/23 12:26:09;;;;;;;15.65;8.25;;;;;;;2.67;40.54;100407.34;4334857;33;32761;-87
2021/12/23 12:28:46;;;;;;;8.45;4.30;;;;;;;2.11;42.20;100410.84;4333341;33;32198;-87
2021/12/23 12:31:22;;;;;;;9.40;3.65;;;;;;;2.54;41.43;100390.84;4318973;33;33648;-87
2021/12/23 12:33:55;;;;;;;8.48;3.90;;;;;;;2.86;41.02;100399.47;4335303;33;33703;-86
2021/12/23 12:36:24;;;;;;;4.20;3.15;;;;;;;2.74;40.80;100389.94;4335406;33;33623;-87
2021/12/23 12:39:15;;;;;;;9.00;3.85;;;;;;;2.94;40.53;100390.72;4335828;33;33578;-87
2021/12/23 12:41:43;;;;;;;7.37;4.50;;;;;;;2.88;41.36;100380.34;4337779;33;33124;-87
2021/12/23 12:44:21;;;;;;;11.95;6.40;;;;;;;2.65;41.62;100387.34;4336158;33;33602;-87
2021/12/23 12:47:03;;;;;;;10.32;5.20;;;;;;;2.58;42.54;100399.53;4334820;33;35119;-87
2021/12/23 12:49:37;;;;;;;7.97;4.53;;;;;;;2.48;41.84;100395.22;4334953;33;33560;-86
2021/12/23 12:52:18;;;;;;;5.25;3.42;;;;;;;2.65;41.15;100383.00;4324625;33;35136;-86
2021/12/23 12:54:57;;;;;;;6.97;3.87;;;;;;;2.43;41.67;100386.53;4336706;33;33619;-86
2021/12/23 12:57:31;;;;;;;6.03;3.25;;;;;;;2.63;41.40;100369.09;4328886;33;33526;-88
2021/12/23 13:00:18;;;;;;;7.32;3.33;;;;;;;2.81;40.95;100365.59;4336512;33;32669;-90
2021/12/23 13:03:14;;;;;;;5.15;2.90;;;;;;;3.12;39.61;100348.06;4322222;33;35150;-91
2021/12/23 13:05:45;;;;;;;8.57;3.40;;;;;;;2.79;39.60;100342.09;4316310;33;33847;-89
2021/12/23 13:08:34;;;;;;;9.35;3.85;;;;;;;2.75;40.21;100348.22;4337829;33;34081;-88
2021/12/23 13:11:09;;;;;;;8.43;4.20;;;;;;;2.94;40.70;100337.69;4305397;33;32055;-89
2021/12/23 13:13:45;;;;;;;7.30;4.07;;;;;;;3.29;40.25;100333.19;4332907;33;32932;-89
2021/12/23 13:16:19;;;;;;;9.85;4.35;;;;;;;2.59;40.08;100333.47;4325941;33;32949;-89
2021/12/23 13:18:48;;;;;;;12.65;3.90;;;;;;;2.96;39.88;100328.16;4335478;33;32269;-89
2021/12/23 13:21:22;;;;;;;11.00;4.57;;;;;;;3.10;39.92;100318.50;4342527;32;32441;-89
2021/12/23 13:23:59;;;;;;;12.85;5.37;;;;;;;2.50;40.85;100328.28;4323827;33;33245;-89
2021/12/23 13:26:27;;;;;;;8.93;4.12;;;;;;;2.64;40.72;100320.44;4313802;33;33736;-89
2021/12/23 13:28:57;;;;;;;7.57;4.30;;;;;;;2.14;40.75;100335.31;4310346;33;34524;-89
2021/12/23 13:31:31;;;;;;;9.50;4.32;;;;;;;2.48;40.59;100323.09;4322429;33;32541;-89
2021/12/23 13:34:04;;;;;;;11.95;4.30;;;;;;;2.29;40.92;100330.09;4314244;33;32886;-90
2021/12/23 13:36:48;;;;;;;8.68;4.05;;;;;;;2.52;40.73;100321.34;4326235;33;32843;-89
2021/12/23 13:39:26;;;;;;;12.77;4.28;;;;;;;2.56;41.20;100321.34;4324735;33;34589;-89
2021/12/23 13:41:57;;;;;;;7.25;3.80;;;;;;;2.79;40.85;100302.13;4334260;33;32508;-89
2021/12/23 13:44:40;;;;;;;8.90;3.97;;;;;;;2.56;41.25;100296.97;4324502;33;33761;-89
2021/12/23 13:47:11;;;;;;;8.00;3.92;;;;;;;2.78;40.30;100288.22;4324504;33;34458;-89
2021/12/23 13:49:53;;;;;;;10.02;4.82;;;;;;;2.55;40.51;100297.87;4314023;33;33051;-89